Terminal Aerodrome Forecast
Issued by NWS Huntsville, AL

Home | Current Version | Previous Version | Text Only | Print | Product List | Glossary On
Versions: 1 2 3 4 5 6 7 8 9 10 11 12 13 14 15 16 17 18 19 20 21 22 23 24
182
FTUS44 KHUN 081132
TAFMSL
TAF
KMSL 081132Z 0812/0912 28004KT P6SM SKC
     FM081500 29011G18KT P6SM BKN050 OVC080
     FM090000 30008KT P6SM -SHSN BKN035 OVC050=

USA.gov is the U.S. government's official web portal to all federal, state and local government web resources and services.